sensor_id;sensor_type;location;lat;lon;timestamp;P1;durP1;ratioP1;P2;durP2;ratioP2
28605;SDS011;46498;49.968;7.754;2023-03-23T00:04:41;1.80;;;0.80;;
28605;SDS011;46498;49.968;7.754;2023-03-23T00:09:43;4.70;;;1.42;;
28605;SDS011;46498;49.968;7.754;2023-03-23T00:14:43;3.55;;;1.05;;
28605;SDS011;46498;49.968;7.754;2023-03-23T00:19:44;1.80;;;0.90;;
28605;SDS011;46498;49.968;7.754;2023-03-23T00:24:47;2.75;;;1.30;;
28605;SDS011;46498;49.968;7.754;2023-03-23T00:29:50;2.42;;;1.15;;
28605;SDS011;46498;49.968;7.754;2023-03-23T00:34:54;2.15;;;0.85;;
28605;SDS011;46498;49.968;7.754;2023-03-23T00:39:56;4.07;;;1.27;;
28605;SDS011;46498;49.968;7.754;2023-03-23T00:44:57;5.20;;;1.98;;
28605;SDS011;46498;49.968;7.754;2023-03-23T00:50:01;3.25;;;0.80;;
28605;SDS011;46498;49.968;7.754;2023-03-23T00:55:03;2.60;;;0.90;;
28605;SDS011;46498;49.968;7.754;2023-03-23T01:00:04;3.53;;;1.05;;
28605;SDS011;46498;49.968;7.754;2023-03-23T01:05:11;2.53;;;1.20;;
28605;SDS011;46498;49.968;7.754;2023-03-23T01:10:13;2.15;;;1.00;;
28605;SDS011;46498;49.968;7.754;2023-03-23T01:15:19;4.35;;;1.30;;
28605;SDS011;46498;49.968;7.754;2023-03-23T01:20:20;8.25;;;3.05;;
28605;SDS011;46498;49.968;7.754;2023-03-23T01:25:21;2.80;;;1.10;;
28605;SDS011;46498;49.968;7.754;2023-03-23T01:30:22;1.95;;;0.90;;
28605;SDS011;46498;49.968;7.754;2023-03-23T01:35:24;1.52;;;0.90;;
28605;SDS011;46498;49.968;7.754;2023-03-23T01:40:26;3.17;;;1.00;;
28605;SDS011;46498;49.968;7.754;2023-03-23T01:45:29;2.13;;;0.90;;
28605;SDS011;46498;49.968;7.754;2023-03-23T01:50:39;2.70;;;1.00;;
28605;SDS011;46498;49.968;7.754;2023-03-23T01:55:45;2.40;;;1.08;;
28605;SDS011;46498;49.968;7.754;2023-03-23T02:00:51;1.77;;;0.88;;
28605;SDS011;46498;49.968;7.754;2023-03-23T02:05:53;3.78;;;1.20;;
28605;SDS011;46498;49.968;7.754;2023-03-23T02:11:13;3.58;;;1.00;;
28605;SDS011;46498;49.968;7.754;2023-03-23T02:16:21;3.30;;;0.90;;
28605;SDS011;46498;49.968;7.754;2023-03-23T02:21:42;1.80;;;1.10;;
28605;SDS011;46498;49.968;7.754;2023-03-23T02:26:54;3.97;;;1.05;;
28605;SDS011;46498;49.968;7.754;2023-03-23T02:32:16;1.98;;;0.95;;
28605;SDS011;46498;49.968;7.754;2023-03-23T02:37:37;1.77;;;0.90;;
28605;SDS011;46498;49.968;7.754;2023-03-23T02:42:45;4.82;;;1.00;;
28605;SDS011;46498;49.968;7.754;2023-03-23T02:47:50;2.75;;;1.20;;
28605;SDS011;46498;49.968;7.754;2023-03-23T02:52:53;2.33;;;1.30;;
28605;SDS011;46498;49.968;7.754;2023-03-23T02:57:58;3.80;;;1.23;;
28605;SDS011;46498;49.968;7.754;2023-03-23T03:03:02;4.43;;;1.33;;
28605;SDS011;46498;49.968;7.754;2023-03-23T03:08:12;2.80;;;1.30;;
28605;SDS011;46498;49.968;7.754;2023-03-23T03:14:22;4.65;;;1.70;;
28605;SDS011;46498;49.968;7.754;2023-03-23T03:19:38;4.68;;;1.10;;
28605;SDS011;46498;49.968;7.754;2023-03-23T03:24:42;2.55;;;1.20;;
28605;SDS011;46498;49.968;7.754;2023-03-23T03:34:51;4.10;;;1.45;;
28605;SDS011;46498;49.968;7.754;2023-03-23T03:39:53;2.05;;;1.20;;
28605;SDS011;46498;49.968;7.754;2023-03-23T03:44:53;4.28;;;1.27;;
28605;SDS011;46498;49.968;7.754;2023-03-23T03:49:54;3.87;;;1.30;;
28605;SDS011;46498;49.968;7.754;2023-03-23T03:54:55;3.47;;;1.37;;
28605;SDS011;46498;49.968;7.754;2023-03-23T03:59:56;5.65;;;1.90;;
28605;SDS011;46498;49.968;7.754;2023-03-23T04:05:15;6.20;;;2.45;;
28605;SDS011;46498;49.968;7.754;2023-03-23T04:10:17;3.12;;;1.35;;
28605;SDS011;46498;49.968;7.754;2023-03-23T04:15:22;5.03;;;1.83;;
28605;SDS011;46498;49.968;7.754;2023-03-23T04:20:24;3.70;;;1.60;;
28605;SDS011;46498;49.968;7.754;2023-03-23T04:25:25;2.35;;;1.33;;
28605;SDS011;46498;49.968;7.754;2023-03-23T04:30:28;4.75;;;1.60;;
28605;SDS011;46498;49.968;7.754;2023-03-23T04:35:48;3.22;;;1.30;;
28605;SDS011;46498;49.968;7.754;2023-03-23T04:40:57;4.70;;;1.40;;
28605;SDS011;46498;49.968;7.754;2023-03-23T04:48:37;2.72;;;1.25;;
28605;SDS011;46498;49.968;7.754;2023-03-23T04:53:44;4.05;;;1.90;;
28605;SDS011;46498;49.968;7.754;2023-03-23T04:58:45;4.00;;;1.67;;
28605;SDS011;46498;49.968;7.754;2023-03-23T05:03:56;3.45;;;1.52;;
28605;SDS011;46498;49.968;7.754;2023-03-23T05:08:57;3.58;;;1.55;;
28605;SDS011;46498;49.968;7.754;2023-03-23T05:13:58;5.72;;;1.58;;
28605;SDS011;46498;49.968;7.754;2023-03-23T05:18:59;3.55;;;1.73;;
28605;SDS011;46498;49.968;7.754;2023-03-23T05:24:00;2.65;;;1.60;;
28605;SDS011;46498;49.968;7.754;2023-03-23T05:29:02;5.87;;;2.15;;
28605;SDS011;46498;49.968;7.754;2023-03-23T05:34:13;5.35;;;1.70;;
28605;SDS011;46498;49.968;7.754;2023-03-23T05:39:27;4.05;;;1.30;;
28605;SDS011;46498;49.968;7.754;2023-03-23T05:44:40;2.47;;;1.17;;
28605;SDS011;46498;49.968;7.754;2023-03-23T05:49:40;2.50;;;1.50;;
28605;SDS011;46498;49.968;7.754;2023-03-23T05:54:43;2.53;;;1.40;;
28605;SDS011;46498;49.968;7.754;2023-03-23T05:59:44;3.35;;;1.40;;
28605;SDS011;46498;49.968;7.754;2023-03-23T06:04:50;2.50;;;1.40;;
28605;SDS011;46498;49.968;7.754;2023-03-23T06:10:07;2.53;;;1.45;;
28605;SDS011;46498;49.968;7.754;2023-03-23T06:15:13;2.65;;;1.45;;
28605;SDS011;46498;49.968;7.754;2023-03-23T06:20:39;2.62;;;1.15;;
28605;SDS011;46498;49.968;7.754;2023-03-23T06:27:02;3.58;;;1.10;;
28605;SDS011;46498;49.968;7.754;2023-03-23T06:32:03;5.00;;;1.65;;
28605;SDS011;46498;49.968;7.754;2023-03-23T06:37:05;1.77;;;1.10;;
28605;SDS011;46498;49.968;7.754;2023-03-23T06:42:11;3.05;;;1.35;;
28605;SDS011;46498;49.968;7.754;2023-03-23T06:47:16;6.28;;;1.00;;
28605;SDS011;46498;49.968;7.754;2023-03-23T06:52:21;2.53;;;1.17;;
28605;SDS011;46498;49.968;7.754;2023-03-23T06:57:27;2.53;;;1.25;;
28605;SDS011;46498;49.968;7.754;2023-03-23T07:02:29;2.90;;;1.20;;
28605;SDS011;46498;49.968;7.754;2023-03-23T07:07:30;4.20;;;1.35;;
28605;SDS011;46498;49.968;7.754;2023-03-23T07:13:17;2.90;;;1.75;;
28605;SDS011;46498;49.968;7.754;2023-03-23T07:18:23;1.67;;;0.98;;
28605;SDS011;46498;49.968;7.754;2023-03-23T07:23:28;4.20;;;1.73;;
28605;SDS011;46498;49.968;7.754;2023-03-23T07:28:35;4.53;;;1.52;;
28605;SDS011;46498;49.968;7.754;2023-03-23T07:33:45;2.87;;;1.60;;
28605;SDS011;46498;49.968;7.754;2023-03-23T07:38:46;4.62;;;1.62;;
28605;SDS011;46498;49.968;7.754;2023-03-23T07:43:49;5.43;;;1.60;;
28605;SDS011;46498;49.968;7.754;2023-03-23T07:48:56;5.53;;;1.45;;
28605;SDS011;46498;49.968;7.754;2023-03-23T07:54:02;2.05;;;1.10;;
28605;SDS011;46498;49.968;7.754;2023-03-23T08:02:35;4.82;;;1.17;;
28605;SDS011;46498;49.968;7.754;2023-03-23T08:08:59;4.60;;;1.33;;
28605;SDS011;46498;49.968;7.754;2023-03-23T08:14:18;2.70;;;1.40;;
28605;SDS011;46498;49.968;7.754;2023-03-23T08:19:39;3.40;;;1.70;;
28605;SDS011;46498;49.968;7.754;2023-03-23T08:24:55;3.35;;;1.20;;
28605;SDS011;46498;49.968;7.754;2023-03-23T08:30:29;2.08;;;1.10;;
28605;SDS011;46498;49.968;7.754;2023-03-23T08:35:54;6.85;;;0.80;;
28605;SDS011;46498;49.968;7.754;2023-03-23T08:43:34;2.08;;;0.70;;
28605;SDS011;46498;49.968;7.754;2023-03-23T08:48:53;1.35;;;0.50;;
28605;SDS011;46498;49.968;7.754;2023-03-23T08:54:20;1.05;;;0.68;;
28605;SDS011;46498;49.968;7.754;2023-03-23T08:59:39;1.58;;;0.70;;
28605;SDS011;46498;49.968;7.754;2023-03-23T09:05:02;2.40;;;0.57;;
28605;SDS011;46498;49.968;7.754;2023-03-23T09:10:28;1.37;;;0.70;;
28605;SDS011;46498;49.968;7.754;2023-03-23T09:15:30;1.35;;;0.70;;
28605;SDS011;46498;49.968;7.754;2023-03-23T09:20:31;4.03;;;1.80;;
28605;SDS011;46498;49.968;7.754;2023-03-23T09:25:33;2.35;;;0.90;;
28605;SDS011;46498;49.968;7.754;2023-03-23T09:30:34;2.87;;;1.27;;
28605;SDS011;46498;49.968;7.754;2023-03-23T09:35:36;4.43;;;0.93;;
28605;SDS011;46498;49.968;7.754;2023-03-23T09:40:56;2.50;;;1.02;;
28605;SDS011;46498;49.968;7.754;2023-03-23T09:49:42;1.62;;;0.90;;
28605;SDS011;46498;49.968;7.754;2023-03-23T09:54:52;1.95;;;0.62;;
28605;SDS011;46498;49.968;7.754;2023-03-23T10:00:18;3.78;;;0.93;;
28605;SDS011;46498;49.968;7.754;2023-03-23T10:21:11;2.15;;;0.70;;
28605;SDS011;46498;49.968;7.754;2023-03-23T10:33:21;0.90;;;0.40;;
28605;SDS011;46498;49.968;7.754;2023-03-23T10:38:31;3.50;;;2.20;;
28605;SDS011;46498;49.968;7.754;2023-03-23T10:43:35;1.52;;;0.77;;
28605;SDS011;46498;49.968;7.754;2023-03-23T10:48:37;0.50;;;0.40;;
28605;SDS011;46498;49.968;7.754;2023-03-23T10:54:00;1.02;;;0.52;;
28605;SDS011;46498;49.968;7.754;2023-03-23T10:59:19;1.83;;;0.50;;
28605;SDS011;46498;49.968;7.754;2023-03-23T11:04:22;3.58;;;0.50;;
28605;SDS011;46498;49.968;7.754;2023-03-23T11:09:33;1.27;;;0.40;;
28605;SDS011;46498;49.968;7.754;2023-03-23T11:14:39;2.15;;;0.65;;
28605;SDS011;46498;49.968;7.754;2023-03-23T11:19:42;1.62;;;0.73;;
28605;SDS011;46498;49.968;7.754;2023-03-23T11:24:44;0.90;;;0.40;;
28605;SDS011;46498;49.968;7.754;2023-03-23T11:29:49;1.50;;;0.62;;
28605;SDS011;46498;49.968;7.754;2023-03-23T11:34:55;4.15;;;0.55;;
28605;SDS011;46498;49.968;7.754;2023-03-23T11:40:14;0.30;;;0.30;;
28605;SDS011;46498;49.968;7.754;2023-03-23T11:45:24;1.20;;;0.30;;
28605;SDS011;46498;49.968;7.754;2023-03-23T11:50:57;3.05;;;1.30;;
28605;SDS011;46498;49.968;7.754;2023-03-23T11:56:17;2.10;;;1.17;;
28605;SDS011;46498;49.968;7.754;2023-03-23T12:01:47;0.90;;;0.40;;
28605;SDS011;46498;49.968;7.754;2023-03-23T12:24:06;2.92;;;0.43;;
28605;SDS011;46498;49.968;7.754;2023-03-23T12:30:23;0.98;;;0.50;;
28605;SDS011;46498;49.968;7.754;2023-03-23T12:44:36;0.80;;;0.52;;
28605;SDS011;46498;49.968;7.754;2023-03-23T12:49:49;3.62;;;0.73;;
28605;SDS011;46498;49.968;7.754;2023-03-23T12:54:59;2.83;;;0.47;;
28605;SDS011;46498;49.968;7.754;2023-03-23T13:00:25;2.12;;;0.57;;
28605;SDS011;46498;49.968;7.754;2023-03-23T13:05:35;0.47;;;0.37;;
28605;SDS011;46498;49.968;7.754;2023-03-23T13:10:47;1.48;;;0.57;;
28605;SDS011;46498;49.968;7.754;2023-03-23T13:16:10;4.78;;;0.90;;
28605;SDS011;46498;49.968;7.754;2023-03-23T13:21:30;2.87;;;0.82;;
28605;SDS011;46498;49.968;7.754;2023-03-23T13:26:36;3.62;;;0.85;;
28605;SDS011;46498;49.968;7.754;2023-03-23T13:31:39;2.42;;;1.00;;
28605;SDS011;46498;49.968;7.754;2023-03-23T13:36:42;2.00;;;0.90;;
28605;SDS011;46498;49.968;7.754;2023-03-23T13:42:05;2.67;;;1.30;;
28605;SDS011;46498;49.968;7.754;2023-03-23T13:52:45;3.87;;;1.10;;
28605;SDS011;46498;49.968;7.754;2023-03-23T14:04:06;2.92;;;1.58;;
28605;SDS011;46498;49.968;7.754;2023-03-23T14:09:12;3.97;;;1.20;;
28605;SDS011;46498;49.968;7.754;2023-03-23T14:14:28;2.95;;;1.25;;
28605;SDS011;46498;49.968;7.754;2023-03-23T14:19:32;4.40;;;1.00;;
28605;SDS011;46498;49.968;7.754;2023-03-23T14:24:40;5.25;;;1.73;;
28605;SDS011;46498;49.968;7.754;2023-03-23T14:29:41;7.80;;;2.92;;
28605;SDS011;46498;49.968;7.754;2023-03-23T14:34:41;5.15;;;1.60;;
28605;SDS011;46498;49.968;7.754;2023-03-23T14:39:44;3.60;;;1.30;;
28605;SDS011;46498;49.968;7.754;2023-03-23T14:44:48;3.83;;;1.15;;
28605;SDS011;46498;49.968;7.754;2023-03-23T14:49:54;4.80;;;1.05;;
28605;SDS011;46498;49.968;7.754;2023-03-23T14:55:11;2.97;;;0.90;;
28605;SDS011;46498;49.968;7.754;2023-03-23T15:00:26;2.42;;;1.00;;
28605;SDS011;46498;49.968;7.754;2023-03-23T15:05:34;5.72;;;2.08;;
28605;SDS011;46498;49.968;7.754;2023-03-23T15:10:38;2.87;;;1.30;;
28605;SDS011;46498;49.968;7.754;2023-03-23T15:15:39;2.70;;;1.25;;
28605;SDS011;46498;49.968;7.754;2023-03-23T15:20:48;2.78;;;0.80;;
28605;SDS011;46498;49.968;7.754;2023-03-23T15:25:50;7.00;;;1.33;;
28605;SDS011;46498;49.968;7.754;2023-03-23T15:30:54;4.15;;;1.37;;
28605;SDS011;46498;49.968;7.754;2023-03-23T15:35:58;4.60;;;1.20;;
28605;SDS011;46498;49.968;7.754;2023-03-23T15:41:03;3.83;;;0.90;;
28605;SDS011;46498;49.968;7.754;2023-03-23T15:51:27;4.85;;;1.70;;
28605;SDS011;46498;49.968;7.754;2023-03-23T15:56:29;4.78;;;1.30;;
28605;SDS011;46498;49.968;7.754;2023-03-23T16:01:31;2.28;;;1.10;;
28605;SDS011;46498;49.968;7.754;2023-03-23T16:06:33;1.75;;;1.02;;
28605;SDS011;46498;49.968;7.754;2023-03-23T16:11:35;2.95;;;1.05;;
28605;SDS011;46498;49.968;7.754;2023-03-23T16:16:38;2.47;;;1.00;;
28605;SDS011;46498;49.968;7.754;2023-03-23T16:21:51;3.95;;;1.67;;
28605;SDS011;46498;49.968;7.754;2023-03-23T16:26:52;3.80;;;1.62;;
28605;SDS011;46498;49.968;7.754;2023-03-23T16:31:53;5.78;;;1.20;;
28605;SDS011;46498;49.968;7.754;2023-03-23T16:36:54;4.72;;;1.95;;
28605;SDS011;46498;49.968;7.754;2023-03-23T16:41:56;3.35;;;1.27;;
28605;SDS011;46498;49.968;7.754;2023-03-23T16:46:56;4.07;;;1.30;;
28605;SDS011;46498;49.968;7.754;2023-03-23T16:51:57;4.90;;;1.40;;
28605;SDS011;46498;49.968;7.754;2023-03-23T16:56:58;5.28;;;1.30;;
28605;SDS011;46498;49.968;7.754;2023-03-23T17:01:59;4.18;;;1.27;;
28605;SDS011;46498;49.968;7.754;2023-03-23T17:07:03;5.55;;;1.33;;
28605;SDS011;46498;49.968;7.754;2023-03-23T17:12:04;7.03;;;1.95;;
28605;SDS011;46498;49.968;7.754;2023-03-23T17:17:05;5.60;;;1.85;;
28605;SDS011;46498;49.968;7.754;2023-03-23T17:22:06;4.97;;;1.37;;
28605;SDS011;46498;49.968;7.754;2023-03-23T17:27:07;2.55;;;1.37;;
28605;SDS011;46498;49.968;7.754;2023-03-23T17:32:08;3.47;;;1.75;;
28605;SDS011;46498;49.968;7.754;2023-03-23T17:37:10;5.82;;;2.08;;
28605;SDS011;46498;49.968;7.754;2023-03-23T17:42:10;4.85;;;2.20;;
28605;SDS011;46498;49.968;7.754;2023-03-23T17:47:12;5.75;;;2.08;;
28605;SDS011;46498;49.968;7.754;2023-03-23T17:52:13;5.75;;;2.15;;
28605;SDS011;46498;49.968;7.754;2023-03-23T17:57:14;4.87;;;1.80;;
28605;SDS011;46498;49.968;7.754;2023-03-23T18:02:15;4.32;;;2.67;;
28605;SDS011;46498;49.968;7.754;2023-03-23T18:07:18;5.80;;;2.67;;
28605;SDS011;46498;49.968;7.754;2023-03-23T18:12:22;7.12;;;4.15;;
28605;SDS011;46498;49.968;7.754;2023-03-23T18:17:24;13.48;;;6.30;;
28605;SDS011;46498;49.968;7.754;2023-03-23T18:22:25;6.37;;;2.25;;
28605;SDS011;46498;49.968;7.754;2023-03-23T18:27:26;4.10;;;2.33;;
28605;SDS011;46498;49.968;7.754;2023-03-23T18:32:27;3.87;;;1.67;;
28605;SDS011;46498;49.968;7.754;2023-03-23T18:37:28;10.52;;;3.10;;
28605;SDS011;46498;49.968;7.754;2023-03-23T18:42:29;5.82;;;2.12;;
28605;SDS011;46498;49.968;7.754;2023-03-23T18:47:30;4.22;;;2.05;;
28605;SDS011;46498;49.968;7.754;2023-03-23T18:52:34;4.82;;;2.37;;
28605;SDS011;46498;49.968;7.754;2023-03-23T18:57:37;5.28;;;2.65;;
28605;SDS011;46498;49.968;7.754;2023-03-23T19:02:39;7.37;;;3.25;;
28605;SDS011;46498;49.968;7.754;2023-03-23T19:07:41;6.72;;;3.35;;
28605;SDS011;46498;49.968;7.754;2023-03-23T19:12:43;5.35;;;2.35;;
28605;SDS011;46498;49.968;7.754;2023-03-23T19:17:43;5.35;;;3.15;;
28605;SDS011;46498;49.968;7.754;2023-03-23T19:22:45;12.52;;;6.32;;
28605;SDS011;46498;49.968;7.754;2023-03-23T19:27:46;4.12;;;2.40;;
28605;SDS011;46498;49.968;7.754;2023-03-23T19:33:53;4.07;;;2.00;;
28605;SDS011;46498;49.968;7.754;2023-03-23T19:38:59;5.65;;;1.90;;
28605;SDS011;46498;49.968;7.754;2023-03-23T19:44:04;5.87;;;1.90;;
28605;SDS011;46498;49.968;7.754;2023-03-23T19:49:07;4.03;;;2.08;;
28605;SDS011;46498;49.968;7.754;2023-03-23T19:54:09;3.45;;;1.85;;
28605;SDS011;46498;49.968;7.754;2023-03-23T19:59:10;2.40;;;1.80;;
28605;SDS011;46498;49.968;7.754;2023-03-23T20:04:14;5.18;;;2.10;;
28605;SDS011;46498;49.968;7.754;2023-03-23T20:09:18;3.75;;;2.40;;
28605;SDS011;46498;49.968;7.754;2023-03-23T20:14:18;7.50;;;2.65;;
28605;SDS011;46498;49.968;7.754;2023-03-23T20:19:19;7.30;;;3.35;;
28605;SDS011;46498;49.968;7.754;2023-03-23T20:24:21;4.93;;;2.40;;
28605;SDS011;46498;49.968;7.754;2023-03-23T20:29:22;7.35;;;2.78;;
28605;SDS011;46498;49.968;7.754;2023-03-23T20:34:24;5.32;;;3.30;;
28605;SDS011;46498;49.968;7.754;2023-03-23T20:39:29;8.18;;;4.20;;
28605;SDS011;46498;49.968;7.754;2023-03-23T20:44:31;12.07;;;5.53;;
28605;SDS011;46498;49.968;7.754;2023-03-23T20:49:35;10.25;;;4.35;;
28605;SDS011;46498;49.968;7.754;2023-03-23T20:54:37;7.45;;;3.53;;
28605;SDS011;46498;49.968;7.754;2023-03-23T20:59:40;10.68;;;5.85;;
28605;SDS011;46498;49.968;7.754;2023-03-23T21:04:41;11.52;;;4.35;;
28605;SDS011;46498;49.968;7.754;2023-03-23T21:09:44;9.45;;;5.10;;
28605;SDS011;46498;49.968;7.754;2023-03-23T21:14:45;18.55;;;11.90;;
28605;SDS011;46498;49.968;7.754;2023-03-23T21:19:46;8.02;;;4.95;;
28605;SDS011;46498;49.968;7.754;2023-03-23T21:24:47;8.48;;;4.85;;
28605;SDS011;46498;49.968;7.754;2023-03-23T21:29:49;9.13;;;4.68;;
28605;SDS011;46498;49.968;7.754;2023-03-23T21:34:50;7.97;;;4.82;;
28605;SDS011;46498;49.968;7.754;2023-03-23T21:39:52;15.00;;;7.68;;
28605;SDS011;46498;49.968;7.754;2023-03-23T21:44:52;17.25;;;7.75;;
28605;SDS011;46498;49.968;7.754;2023-03-23T21:49:56;11.45;;;5.55;;
28605;SDS011;46498;49.968;7.754;2023-03-23T21:54:57;10.25;;;5.85;;
28605;SDS011;46498;49.968;7.754;2023-03-23T21:59:59;20.50;;;7.35;;
28605;SDS011;46498;49.968;7.754;2023-03-23T22:05:04;13.70;;;6.00;;
28605;SDS011;46498;49.968;7.754;2023-03-23T22:10:06;13.02;;;6.15;;
28605;SDS011;46498;49.968;7.754;2023-03-23T22:15:08;22.90;;;7.80;;
28605;SDS011;46498;49.968;7.754;2023-03-23T22:20:12;9.30;;;4.80;;
28605;SDS011;46498;49.968;7.754;2023-03-23T22:25:13;14.38;;;7.57;;
28605;SDS011;46498;49.968;7.754;2023-03-23T22:30:15;7.35;;;4.57;;
28605;SDS011;46498;49.968;7.754;2023-03-23T22:35:16;10.25;;;5.15;;
28605;SDS011;46498;49.968;7.754;2023-03-23T22:40:17;7.90;;;4.80;;
28605;SDS011;46498;49.968;7.754;2023-03-23T22:45:19;8.40;;;4.43;;
28605;SDS011;46498;49.968;7.754;2023-03-23T22:50:20;9.63;;;5.53;;
28605;SDS011;46498;49.968;7.754;2023-03-23T23:00:24;17.67;;;6.65;;
28605;SDS011;46498;49.968;7.754;2023-03-23T23:05:25;21.27;;;7.47;;
28605;SDS011;46498;49.968;7.754;2023-03-23T23:10:26;18.83;;;8.07;;
28605;SDS011;46498;49.968;7.754;2023-03-23T23:15:28;15.98;;;7.50;;
28605;SDS011;46498;49.968;7.754;2023-03-23T23:20:29;12.35;;;5.70;;
28605;SDS011;46498;49.968;7.754;2023-03-23T23:25:31;8.20;;;4.53;;
28605;SDS011;46498;49.968;7.754;2023-03-23T23:30:32;7.82;;;5.43;;
28605;SDS011;46498;49.968;7.754;2023-03-23T23:35:35;11.10;;;6.35;;
28605;SDS011;46498;49.968;7.754;2023-03-23T23:40:37;9.90;;;6.10;;
28605;SDS011;46498;49.968;7.754;2023-03-23T23:45:40;10.38;;;5.22;;
28605;SDS011;46498;49.968;7.754;2023-03-23T23:50:42;11.32;;;5.62;;
28605;SDS011;46498;49.968;7.754;2023-03-23T23:55:43;15.65;;;6.80;;
